Terminal Aerodrome Forecast
Issued by NWS

Home | Current Version | Previous Version | Text Only | Print | Product List | Glossary On
Versions: 1 2 3 4 5 6 7 8 9 10 11 12 13
000
FTUS44 KLZK 020539
TAFHOT
TAF
KHOT 020539Z 0206/0306 VRB03KT P6SM SCT250
      TEMPO 0209/0213 5SM BR
     FM021500 17006KT P6SM SCT050 SCT250
     FM030100 VRB03KT P6SM SCT250=

USA.gov is the U.S. government's official web portal to all federal, state and local government web resources and services.